sensor_id;sensor_type;location;lat;lon;timestamp;temperature;humidity
29341;DHT22;16337;59.536;13.468;2023-07-13T00:01:16;15.80;99.90
29341;DHT22;16337;59.536;13.468;2023-07-13T00:03:42;15.70;99.90
29341;DHT22;16337;59.536;13.468;2023-07-13T00:06:08;15.70;99.90
29341;DHT22;16337;59.536;13.468;2023-07-13T00:08:35;15.80;99.90
29341;DHT22;16337;59.536;13.468;2023-07-13T00:11:02;15.80;99.90
29341;DHT22;16337;59.536;13.468;2023-07-13T00:13:28;15.80;99.90
29341;DHT22;16337;59.536;13.468;2023-07-13T00:15:55;15.70;99.90
29341;DHT22;16337;59.536;13.468;2023-07-13T00:18:21;15.50;99.90
29341;DHT22;16337;59.536;13.468;2023-07-13T00:20:47;15.40;99.90
29341;DHT22;16337;59.536;13.468;2023-07-13T00:23:14;15.30;99.90
29341;DHT22;16337;59.536;13.468;2023-07-13T00:25:40;15.20;99.90
29341;DHT22;16337;59.536;13.468;2023-07-13T00:28:05;15.20;99.90
29341;DHT22;16337;59.536;13.468;2023-07-13T00:30:31;15.40;99.90
29341;DHT22;16337;59.536;13.468;2023-07-13T00:32:57;15.40;99.90
29341;DHT22;16337;59.536;13.468;2023-07-13T00:35:23;15.50;99.90
29341;DHT22;16337;59.536;13.468;2023-07-13T00:37:48;15.60;99.90
29341;DHT22;16337;59.536;13.468;2023-07-13T00:40:16;15.60;99.90
29341;DHT22;16337;59.536;13.468;2023-07-13T00:42:42;15.70;99.90
29341;DHT22;16337;59.536;13.468;2023-07-13T00:47:37;15.70;99.90
29341;DHT22;16337;59.536;13.468;2023-07-13T00:50:04;15.70;99.90
29341;DHT22;16337;59.536;13.468;2023-07-13T00:52:33;15.70;99.90
29341;DHT22;16337;59.536;13.468;2023-07-13T00:55:00;15.60;99.90
29341;DHT22;16337;59.536;13.468;2023-07-13T00:57:26;15.60;99.90
29341;DHT22;16337;59.536;13.468;2023-07-13T00:59:56;15.60;99.90
29341;DHT22;16337;59.536;13.468;2023-07-13T01:02:24;15.50;99.90
29341;DHT22;16337;59.536;13.468;2023-07-13T01:04:50;15.50;99.90
29341;DHT22;16337;59.536;13.468;2023-07-13T01:07:16;15.60;99.90
29341;DHT22;16337;59.536;13.468;2023-07-13T01:09:43;15.60;99.90
29341;DHT22;16337;59.536;13.468;2023-07-13T01:12:10;15.60;99.90
29341;DHT22;16337;59.536;13.468;2023-07-13T01:14:36;15.60;99.90
29341;DHT22;16337;59.536;13.468;2023-07-13T01:17:02;15.60;99.90
29341;DHT22;16337;59.536;13.468;2023-07-13T01:19:40;15.60;99.90
29341;DHT22;16337;59.536;13.468;2023-07-13T01:22:18;15.60;99.90
29341;DHT22;16337;59.536;13.468;2023-07-13T01:24:46;15.70;99.90
29341;DHT22;16337;59.536;13.468;2023-07-13T01:27:15;15.70;99.90
29341;DHT22;16337;59.536;13.468;2023-07-13T01:29:43;15.80;99.90
29341;DHT22;16337;59.536;13.468;2023-07-13T01:32:11;15.80;99.90
29341;DHT22;16337;59.536;13.468;2023-07-13T01:34:38;15.80;99.90
29341;DHT22;16337;59.536;13.468;2023-07-13T01:37:05;15.70;99.90
29341;DHT22;16337;59.536;13.468;2023-07-13T01:39:31;15.70;99.90
29341;DHT22;16337;59.536;13.468;2023-07-13T01:42:00;15.70;99.90
29341;DHT22;16337;59.536;13.468;2023-07-13T01:44:26;15.80;99.90
29341;DHT22;16337;59.536;13.468;2023-07-13T01:46:52;15.70;99.90
29341;DHT22;16337;59.536;13.468;2023-07-13T01:49:18;15.70;99.90
29341;DHT22;16337;59.536;13.468;2023-07-13T01:51:43;15.70;99.90
29341;DHT22;16337;59.536;13.468;2023-07-13T01:54:09;15.50;99.90
29341;DHT22;16337;59.536;13.468;2023-07-13T01:56:35;15.50;99.90
29341;DHT22;16337;59.536;13.468;2023-07-13T01:59:00;15.60;99.90
29341;DHT22;16337;59.536;13.468;2023-07-13T02:01:26;15.60;99.90
29341;DHT22;16337;59.536;13.468;2023-07-13T02:03:52;15.60;99.90
29341;DHT22;16337;59.536;13.468;2023-07-13T02:06:18;15.60;99.90
29341;DHT22;16337;59.536;13.468;2023-07-13T02:08:43;15.60;99.90
29341;DHT22;16337;59.536;13.468;2023-07-13T02:11:09;15.60;99.90
29341;DHT22;16337;59.536;13.468;2023-07-13T02:13:35;15.50;99.90
29341;DHT22;16337;59.536;13.468;2023-07-13T02:16:01;15.50;99.90
29341;DHT22;16337;59.536;13.468;2023-07-13T02:18:26;15.60;99.90
29341;DHT22;16337;59.536;13.468;2023-07-13T02:20:52;15.50;99.90
29341;DHT22;16337;59.536;13.468;2023-07-13T02:23:18;15.50;99.90
29341;DHT22;16337;59.536;13.468;2023-07-13T02:25:45;15.50;99.90
29341;DHT22;16337;59.536;13.468;2023-07-13T02:28:11;15.40;99.90
29341;DHT22;16337;59.536;13.468;2023-07-13T02:30:37;15.40;99.90
29341;DHT22;16337;59.536;13.468;2023-07-13T02:33:04;15.40;99.90
29341;DHT22;16337;59.536;13.468;2023-07-13T02:35:30;15.40;99.90
29341;DHT22;16337;59.536;13.468;2023-07-13T02:37:56;15.50;99.90
29341;DHT22;16337;59.536;13.468;2023-07-13T02:40:21;15.50;99.90
29341;DHT22;16337;59.536;13.468;2023-07-13T02:42:47;15.50;99.90
29341;DHT22;16337;59.536;13.468;2023-07-13T02:45:13;15.50;99.90
29341;DHT22;16337;59.536;13.468;2023-07-13T02:47:41;15.60;99.90
29341;DHT22;16337;59.536;13.468;2023-07-13T02:50:07;15.60;99.90
29341;DHT22;16337;59.536;13.468;2023-07-13T02:52:33;15.50;99.90
29341;DHT22;16337;59.536;13.468;2023-07-13T02:54:59;15.50;99.90
29341;DHT22;16337;59.536;13.468;2023-07-13T02:57:25;15.60;99.90
29341;DHT22;16337;59.536;13.468;2023-07-13T02:59:51;15.60;99.90
29341;DHT22;16337;59.536;13.468;2023-07-13T03:02:16;15.60;99.90
29341;DHT22;16337;59.536;13.468;2023-07-13T03:04:43;15.70;99.90
29341;DHT22;16337;59.536;13.468;2023-07-13T03:07:08;15.70;99.90
29341;DHT22;16337;59.536;13.468;2023-07-13T03:09:35;15.70;99.90
29341;DHT22;16337;59.536;13.468;2023-07-13T03:12:01;15.80;99.90
29341;DHT22;16337;59.536;13.468;2023-07-13T03:14:27;15.90;99.90
29341;DHT22;16337;59.536;13.468;2023-07-13T03:16:52;16.00;99.90
29341;DHT22;16337;59.536;13.468;2023-07-13T03:19:21;16.00;99.90
29341;DHT22;16337;59.536;13.468;2023-07-13T03:21:47;16.00;99.90
29341;DHT22;16337;59.536;13.468;2023-07-13T03:24:13;15.80;99.90
29341;DHT22;16337;59.536;13.468;2023-07-13T03:26:38;15.90;99.90
29341;DHT22;16337;59.536;13.468;2023-07-13T03:29:04;16.00;99.90
29341;DHT22;16337;59.536;13.468;2023-07-13T03:31:36;16.00;99.90
29341;DHT22;16337;59.536;13.468;2023-07-13T03:34:02;16.00;99.90
29341;DHT22;16337;59.536;13.468;2023-07-13T03:36:29;15.90;99.90
29341;DHT22;16337;59.536;13.468;2023-07-13T03:38:58;15.80;99.90
29341;DHT22;16337;59.536;13.468;2023-07-13T03:41:25;15.60;99.90
29341;DHT22;16337;59.536;13.468;2023-07-13T03:43:51;15.50;99.90
29341;DHT22;16337;59.536;13.468;2023-07-13T03:46:17;15.60;99.90
29341;DHT22;16337;59.536;13.468;2023-07-13T03:48:45;15.70;99.90
29341;DHT22;16337;59.536;13.468;2023-07-13T03:51:12;15.80;99.90
29341;DHT22;16337;59.536;13.468;2023-07-13T03:53:44;15.70;99.90
29341;DHT22;16337;59.536;13.468;2023-07-13T03:56:10;15.70;99.90
29341;DHT22;16337;59.536;13.468;2023-07-13T03:58:38;15.60;99.90
29341;DHT22;16337;59.536;13.468;2023-07-13T04:01:07;15.40;99.90
29341;DHT22;16337;59.536;13.468;2023-07-13T04:03:33;15.20;99.90
29341;DHT22;16337;59.536;13.468;2023-07-13T04:06:00;15.20;99.90
29341;DHT22;16337;59.536;13.468;2023-07-13T04:08:32;15.30;99.90
29341;DHT22;16337;59.536;13.468;2023-07-13T04:10:59;15.20;99.90
29341;DHT22;16337;59.536;13.468;2023-07-13T04:13:25;15.20;99.90
29341;DHT22;16337;59.536;13.468;2023-07-13T04:15:51;15.20;99.90
29341;DHT22;16337;59.536;13.468;2023-07-13T04:18:17;15.30;99.90
29341;DHT22;16337;59.536;13.468;2023-07-13T04:20:43;15.40;99.90
29341;DHT22;16337;59.536;13.468;2023-07-13T04:23:09;15.50;99.90
29341;DHT22;16337;59.536;13.468;2023-07-13T04:25:34;15.40;99.90
29341;DHT22;16337;59.536;13.468;2023-07-13T04:28:00;15.60;99.90
29341;DHT22;16337;59.536;13.468;2023-07-13T04:30:26;15.60;99.90
29341;DHT22;16337;59.536;13.468;2023-07-13T04:32:52;15.80;99.90
29341;DHT22;16337;59.536;13.468;2023-07-13T04:35:21;15.90;99.90
29341;DHT22;16337;59.536;13.468;2023-07-13T04:37:48;16.10;99.90
29341;DHT22;16337;59.536;13.468;2023-07-13T04:40:19;16.00;99.90
29341;DHT22;16337;59.536;13.468;2023-07-13T04:42:46;16.10;99.90
29341;DHT22;16337;59.536;13.468;2023-07-13T04:45:13;16.20;99.90
29341;DHT22;16337;59.536;13.468;2023-07-13T04:47:39;16.10;99.90
29341;DHT22;16337;59.536;13.468;2023-07-13T04:50:06;15.80;99.90
29341;DHT22;16337;59.536;13.468;2023-07-13T04:52:32;15.60;99.90
29341;DHT22;16337;59.536;13.468;2023-07-13T04:55:01;15.30;99.90
29341;DHT22;16337;59.536;13.468;2023-07-13T04:57:27;15.20;99.90
29341;DHT22;16337;59.536;13.468;2023-07-13T04:59:53;15.00;99.90
29341;DHT22;16337;59.536;13.468;2023-07-13T05:02:20;14.90;99.90
29341;DHT22;16337;59.536;13.468;2023-07-13T05:04:47;14.80;99.90
29341;DHT22;16337;59.536;13.468;2023-07-13T05:07:14;14.60;99.90
29341;DHT22;16337;59.536;13.468;2023-07-13T05:09:40;14.70;99.90
29341;DHT22;16337;59.536;13.468;2023-07-13T05:12:07;14.70;99.90
29341;DHT22;16337;59.536;13.468;2023-07-13T05:14:34;14.70;99.90
29341;DHT22;16337;59.536;13.468;2023-07-13T05:16:59;14.80;99.90
29341;DHT22;16337;59.536;13.468;2023-07-13T05:19:28;14.80;99.90
29341;DHT22;16337;59.536;13.468;2023-07-13T05:21:54;14.90;99.90
29341;DHT22;16337;59.536;13.468;2023-07-13T05:24:20;15.10;99.90
29341;DHT22;16337;59.536;13.468;2023-07-13T05:26:46;15.10;99.90
29341;DHT22;16337;59.536;13.468;2023-07-13T05:29:11;15.10;99.90
29341;DHT22;16337;59.536;13.468;2023-07-13T05:31:37;15.30;99.90
29341;DHT22;16337;59.536;13.468;2023-07-13T05:34:03;15.50;99.90
29341;DHT22;16337;59.536;13.468;2023-07-13T05:36:28;15.60;99.90
29341;DHT22;16337;59.536;13.468;2023-07-13T05:38:54;15.80;99.90
29341;DHT22;16337;59.536;13.468;2023-07-13T05:41:20;16.00;99.90
29341;DHT22;16337;59.536;13.468;2023-07-13T05:43:46;16.10;99.90
29341;DHT22;16337;59.536;13.468;2023-07-13T05:46:11;16.10;99.90
29341;DHT22;16337;59.536;13.468;2023-07-13T05:48:40;16.30;99.90
29341;DHT22;16337;59.536;13.468;2023-07-13T05:51:06;16.30;99.90
29341;DHT22;16337;59.536;13.468;2023-07-13T05:53:31;16.40;99.90
29341;DHT22;16337;59.536;13.468;2023-07-13T05:55:57;16.30;99.90
29341;DHT22;16337;59.536;13.468;2023-07-13T05:58:23;16.40;99.90
29341;DHT22;16337;59.536;13.468;2023-07-13T06:00:57;16.40;99.90
29341;DHT22;16337;59.536;13.468;2023-07-13T06:03:23;16.40;99.90
29341;DHT22;16337;59.536;13.468;2023-07-13T06:05:49;16.60;99.90
29341;DHT22;16337;59.536;13.468;2023-07-13T06:08:15;16.60;99.90
29341;DHT22;16337;59.536;13.468;2023-07-13T06:10:40;16.60;99.90
29341;DHT22;16337;59.536;13.468;2023-07-13T06:13:06;16.60;99.90
29341;DHT22;16337;59.536;13.468;2023-07-13T06:15:32;16.60;99.90
29341;DHT22;16337;59.536;13.468;2023-07-13T06:17:58;16.50;99.90
29341;DHT22;16337;59.536;13.468;2023-07-13T06:20:23;16.50;99.90
29341;DHT22;16337;59.536;13.468;2023-07-13T06:22:49;16.50;99.90
29341;DHT22;16337;59.536;13.468;2023-07-13T06:25:15;16.50;99.90
29341;DHT22;16337;59.536;13.468;2023-07-13T06:27:41;16.60;99.90
29341;DHT22;16337;59.536;13.468;2023-07-13T06:30:07;16.60;99.90
29341;DHT22;16337;59.536;13.468;2023-07-13T06:32:32;16.50;99.90
29341;DHT22;16337;59.536;13.468;2023-07-13T06:34:58;16.40;99.90
29341;DHT22;16337;59.536;13.468;2023-07-13T06:37:24;16.40;99.90
29341;DHT22;16337;59.536;13.468;2023-07-13T06:39:50;16.60;99.90
29341;DHT22;16337;59.536;13.468;2023-07-13T06:42:17;16.50;99.90
29341;DHT22;16337;59.536;13.468;2023-07-13T06:44:43;16.40;99.90
29341;DHT22;16337;59.536;13.468;2023-07-13T06:47:08;16.40;99.90
29341;DHT22;16337;59.536;13.468;2023-07-13T06:49:34;16.50;99.90
29341;DHT22;16337;59.536;13.468;2023-07-13T06:52:00;16.70;99.90
29341;DHT22;16337;59.536;13.468;2023-07-13T06:54:25;16.80;99.90
29341;DHT22;16337;59.536;13.468;2023-07-13T06:56:53;16.90;99.90
29341;DHT22;16337;59.536;13.468;2023-07-13T06:59:19;17.20;99.90
29341;DHT22;16337;59.536;13.468;2023-07-13T07:01:45;17.40;99.90
29341;DHT22;16337;59.536;13.468;2023-07-13T07:04:11;17.80;99.90
29341;DHT22;16337;59.536;13.468;2023-07-13T07:06:36;18.10;99.90
29341;DHT22;16337;59.536;13.468;2023-07-13T07:09:02;18.50;99.90
29341;DHT22;16337;59.536;13.468;2023-07-13T07:11:31;18.80;99.90
29341;DHT22;16337;59.536;13.468;2023-07-13T07:13:57;19.10;99.90
29341;DHT22;16337;59.536;13.468;2023-07-13T07:16:24;18.90;99.90
29341;DHT22;16337;59.536;13.468;2023-07-13T07:18:53;18.90;99.90
29341;DHT22;16337;59.536;13.468;2023-07-13T07:21:19;19.00;99.90
29341;DHT22;16337;59.536;13.468;2023-07-13T07:23:45;19.10;99.90
29341;DHT22;16337;59.536;13.468;2023-07-13T07:26:11;19.20;99.90
29341;DHT22;16337;59.536;13.468;2023-07-13T07:28:37;19.10;99.90
29341;DHT22;16337;59.536;13.468;2023-07-13T07:31:03;18.90;99.90
29341;DHT22;16337;59.536;13.468;2023-07-13T07:33:28;18.80;99.90
29341;DHT22;16337;59.536;13.468;2023-07-13T07:35:54;18.60;99.90
29341;DHT22;16337;59.536;13.468;2023-07-13T07:38:20;18.60;99.90
29341;DHT22;16337;59.536;13.468;2023-07-13T07:40:46;18.50;99.90
29341;DHT22;16337;59.536;13.468;2023-07-13T07:43:12;18.50;99.90
29341;DHT22;16337;59.536;13.468;2023-07-13T07:45:39;18.30;99.90
29341;DHT22;16337;59.536;13.468;2023-07-13T07:48:05;18.20;99.90
29341;DHT22;16337;59.536;13.468;2023-07-13T07:50:32;18.60;99.90
29341;DHT22;16337;59.536;13.468;2023-07-13T07:52:58;18.80;99.90
29341;DHT22;16337;59.536;13.468;2023-07-13T07:55:25;18.90;99.90
29341;DHT22;16337;59.536;13.468;2023-07-13T07:57:55;19.00;99.90
29341;DHT22;16337;59.536;13.468;2023-07-13T08:00:21;19.50;99.90
29341;DHT22;16337;59.536;13.468;2023-07-13T08:02:47;19.50;99.90
29341;DHT22;16337;59.536;13.468;2023-07-13T08:05:13;19.70;99.90
29341;DHT22;16337;59.536;13.468;2023-07-13T08:07:42;19.60;99.90
29341;DHT22;16337;59.536;13.468;2023-07-13T08:10:08;19.90;99.90
29341;DHT22;16337;59.536;13.468;2023-07-13T08:12:38;20.50;99.90
29341;DHT22;16337;59.536;13.468;2023-07-13T08:15:06;20.80;99.90
29341;DHT22;16337;59.536;13.468;2023-07-13T08:17:32;20.70;99.90
29341;DHT22;16337;59.536;13.468;2023-07-13T08:19:58;20.70;99.90
29341;DHT22;16337;59.536;13.468;2023-07-13T08:22:23;20.60;99.90
29341;DHT22;16337;59.536;13.468;2023-07-13T08:24:49;20.60;99.90
29341;DHT22;16337;59.536;13.468;2023-07-13T08:27:24;20.90;99.90
29341;DHT22;16337;59.536;13.468;2023-07-13T08:29:51;21.40;99.90
29341;DHT22;16337;59.536;13.468;2023-07-13T08:32:18;22.00;99.90
29341;DHT22;16337;59.536;13.468;2023-07-13T08:34:45;22.60;99.90
29341;DHT22;16337;59.536;13.468;2023-07-13T08:37:10;22.60;99.90
29341;DHT22;16337;59.536;13.468;2023-07-13T08:39:36;22.60;99.90
29341;DHT22;16337;59.536;13.468;2023-07-13T08:42:16;22.00;99.90
29341;DHT22;16337;59.536;13.468;2023-07-13T08:50:25;22.30;99.90
29341;DHT22;16337;59.536;13.468;2023-07-13T08:52:53;22.30;99.90
29341;DHT22;16337;59.536;13.468;2023-07-13T08:55:31;21.50;99.90
29341;DHT22;16337;59.536;13.468;2023-07-13T08:58:14;20.90;99.90
29341;DHT22;16337;59.536;13.468;2023-07-13T09:00:48;20.30;99.90
29341;DHT22;16337;59.536;13.468;2023-07-13T09:03:26;19.80;99.90
29341;DHT22;16337;59.536;13.468;2023-07-13T09:05:58;19.70;99.90
29341;DHT22;16337;59.536;13.468;2023-07-13T09:16:51;20.70;99.90
29341;DHT22;16337;59.536;13.468;2023-07-13T09:19:25;21.20;99.90
29341;DHT22;16337;59.536;13.468;2023-07-13T09:21:53;21.50;99.90
29341;DHT22;16337;59.536;13.468;2023-07-13T09:24:37;22.00;99.90
29341;DHT22;16337;59.536;13.468;2023-07-13T09:27:29;22.40;99.90
29341;DHT22;16337;59.536;13.468;2023-07-13T09:30:04;23.30;99.90
29341;DHT22;16337;59.536;13.468;2023-07-13T09:32:36;23.60;99.90
29341;DHT22;16337;59.536;13.468;2023-07-13T09:35:12;23.40;99.90
29341;DHT22;16337;59.536;13.468;2023-07-13T09:37:38;22.50;99.90
29341;DHT22;16337;59.536;13.468;2023-07-13T09:40:13;21.90;99.90
29341;DHT22;16337;59.536;13.468;2023-07-13T09:42:42;22.00;99.90
29341;DHT22;16337;59.536;13.468;2023-07-13T09:45:08;22.20;99.90
29341;DHT22;16337;59.536;13.468;2023-07-13T09:47:39;22.80;99.90
29341;DHT22;16337;59.536;13.468;2023-07-13T09:50:15;23.40;99.90
29341;DHT22;16337;59.536;13.468;2023-07-13T09:52:46;23.50;99.90
29341;DHT22;16337;59.536;13.468;2023-07-13T09:55:39;22.50;99.90
29341;DHT22;16337;59.536;13.468;2023-07-13T10:00:38;21.70;99.90
29341;DHT22;16337;59.536;13.468;2023-07-13T10:03:18;21.80;99.90
29341;DHT22;16337;59.536;13.468;2023-07-13T10:05:47;22.10;99.90
29341;DHT22;16337;59.536;13.468;2023-07-13T10:08:27;22.80;99.90
29341;DHT22;16337;59.536;13.468;2023-07-13T10:14:09;23.20;99.90
29341;DHT22;16337;59.536;13.468;2023-07-13T10:16:36;23.50;99.90
29341;DHT22;16337;59.536;13.468;2023-07-13T10:19:05;24.20;99.90
29341;DHT22;16337;59.536;13.468;2023-07-13T10:21:53;24.10;99.90
29341;DHT22;16337;59.536;13.468;2023-07-13T10:24:26;23.30;99.90
29341;DHT22;16337;59.536;13.468;2023-07-13T10:27:05;22.80;99.90
29341;DHT22;16337;59.536;13.468;2023-07-13T10:29:47;22.40;99.90
29341;DHT22;16337;59.536;13.468;2023-07-13T10:32:13;21.70;99.90
29341;DHT22;16337;59.536;13.468;2023-07-13T10:34:45;21.20;99.90
29341;DHT22;16337;59.536;13.468;2023-07-13T10:37:21;20.90;99.90
29341;DHT22;16337;59.536;13.468;2023-07-13T10:39:50;20.70;99.90
29341;DHT22;16337;59.536;13.468;2023-07-13T10:42:26;20.00;99.90
29341;DHT22;16337;59.536;13.468;2023-07-13T10:44:53;19.70;99.90
29341;DHT22;16337;59.536;13.468;2023-07-13T10:47:19;19.50;99.90
29341;DHT22;16337;59.536;13.468;2023-07-13T10:49:46;19.20;99.90
29341;DHT22;16337;59.536;13.468;2023-07-13T10:55:54;18.70;99.90
29341;DHT22;16337;59.536;13.468;2023-07-13T11:03:35;18.20;99.90
29341;DHT22;16337;59.536;13.468;2023-07-13T11:08:54;17.50;99.90
29341;DHT22;16337;59.536;13.468;2023-07-13T11:23:45;20.80;99.90
29341;DHT22;16337;59.536;13.468;2023-07-13T11:31:58;23.40;99.90
29341;DHT22;16337;59.536;13.468;2023-07-13T11:34:31;24.10;99.90
29341;DHT22;16337;59.536;13.468;2023-07-13T11:36:59;24.30;99.90
29341;DHT22;16337;59.536;13.468;2023-07-13T11:39:35;23.70;99.90
29341;DHT22;16337;59.536;13.468;2023-07-13T11:42:05;23.50;99.90
29341;DHT22;16337;59.536;13.468;2023-07-13T11:44:33;23.40;99.90
29341;DHT22;16337;59.536;13.468;2023-07-13T11:47:09;23.30;99.90
29341;DHT22;16337;59.536;13.468;2023-07-13T11:49:50;24.00;99.90
29341;DHT22;16337;59.536;13.468;2023-07-13T11:52:21;24.40;99.90
29341;DHT22;16337;59.536;13.468;2023-07-13T11:54:53;24.20;99.90
29341;DHT22;16337;59.536;13.468;2023-07-13T11:59:51;23.70;99.90
29341;DHT22;16337;59.536;13.468;2023-07-13T12:02:27;23.90;99.90
29341;DHT22;16337;59.536;13.468;2023-07-13T12:04:57;23.50;99.90
29341;DHT22;16337;59.536;13.468;2023-07-13T12:07:24;22.80;99.90
29341;DHT22;16337;59.536;13.468;2023-07-13T12:09:49;22.50;99.90
29341;DHT22;16337;59.536;13.468;2023-07-13T12:12:21;22.70;99.90
29341;DHT22;16337;59.536;13.468;2023-07-13T12:14:53;22.90;99.90
29341;DHT22;16337;59.536;13.468;2023-07-13T12:17:23;22.60;99.90
29341;DHT22;16337;59.536;13.468;2023-07-13T12:19:51;22.60;99.90
29341;DHT22;16337;59.536;13.468;2023-07-13T12:22:19;22.60;99.90
29341;DHT22;16337;59.536;13.468;2023-07-13T12:24:46;22.20;99.90
29341;DHT22;16337;59.536;13.468;2023-07-13T12:27:24;22.00;99.90
29341;DHT22;16337;59.536;13.468;2023-07-13T12:30:30;21.90;99.90
29341;DHT22;16337;59.536;13.468;2023-07-13T12:33:08;22.20;99.90
29341;DHT22;16337;59.536;13.468;2023-07-13T12:35:42;22.50;99.90
29341;DHT22;16337;59.536;13.468;2023-07-13T12:38:11;22.70;99.90
29341;DHT22;16337;59.536;13.468;2023-07-13T12:40:37;22.80;99.90
29341;DHT22;16337;59.536;13.468;2023-07-13T12:43:04;22.30;99.90
29341;DHT22;16337;59.536;13.468;2023-07-13T12:45:32;21.60;99.90
29341;DHT22;16337;59.536;13.468;2023-07-13T12:48:16;21.10;99.90
29341;DHT22;16337;59.536;13.468;2023-07-13T12:50:47;20.70;99.90
29341;DHT22;16337;59.536;13.468;2023-07-13T12:53:16;20.30;99.90
29341;DHT22;16337;59.536;13.468;2023-07-13T12:55:55;20.30;99.90
29341;DHT22;16337;59.536;13.468;2023-07-13T12:58:45;20.90;99.90
29341;DHT22;16337;59.536;13.468;2023-07-13T13:01:14;21.70;99.90
29341;DHT22;16337;59.536;13.468;2023-07-13T13:03:49;22.90;99.90
29341;DHT22;16337;59.536;13.468;2023-07-13T13:08:47;24.50;99.90
29341;DHT22;16337;59.536;13.468;2023-07-13T13:11:17;24.80;99.90
29341;DHT22;16337;59.536;13.468;2023-07-13T13:13:44;24.70;99.90
29341;DHT22;16337;59.536;13.468;2023-07-13T13:16:29;24.40;99.90
29341;DHT22;16337;59.536;13.468;2023-07-13T13:18:59;24.50;99.90
29341;DHT22;16337;59.536;13.468;2023-07-13T13:21:27;24.70;99.90
29341;DHT22;16337;59.536;13.468;2023-07-13T13:23:53;24.70;99.90
29341;DHT22;16337;59.536;13.468;2023-07-13T13:26:21;24.50;99.90
29341;DHT22;16337;59.536;13.468;2023-07-13T13:28:47;24.50;99.90
29341;DHT22;16337;59.536;13.468;2023-07-13T13:31:15;24.30;99.90
29341;DHT22;16337;59.536;13.468;2023-07-13T13:33:42;23.60;99.90
29341;DHT22;16337;59.536;13.468;2023-07-13T13:36:18;23.10;99.90
29341;DHT22;16337;59.536;13.468;2023-07-13T13:38:44;22.60;99.90
29341;DHT22;16337;59.536;13.468;2023-07-13T13:41:12;22.00;99.90
29341;DHT22;16337;59.536;13.468;2023-07-13T13:43:39;21.40;99.90
29341;DHT22;16337;59.536;13.468;2023-07-13T13:46:19;21.20;99.90
29341;DHT22;16337;59.536;13.468;2023-07-13T13:48:50;21.00;99.90
29341;DHT22;16337;59.536;13.468;2023-07-13T13:51:19;20.90;99.90
29341;DHT22;16337;59.536;13.468;2023-07-13T13:53:45;20.80;99.90
29341;DHT22;16337;59.536;13.468;2023-07-13T13:56:12;21.20;99.90
29341;DHT22;16337;59.536;13.468;2023-07-13T13:58:39;22.10;99.90
29341;DHT22;16337;59.536;13.468;2023-07-13T14:01:19;22.70;99.90
29341;DHT22;16337;59.536;13.468;2023-07-13T14:03:45;23.30;99.90
29341;DHT22;16337;59.536;13.468;2023-07-13T14:06:15;23.30;99.90
29341;DHT22;16337;59.536;13.468;2023-07-13T14:08:42;23.30;99.90
29341;DHT22;16337;59.536;13.468;2023-07-13T14:11:16;23.30;99.90
29341;DHT22;16337;59.536;13.468;2023-07-13T14:13:50;23.00;99.90
29341;DHT22;16337;59.536;13.468;2023-07-13T14:16:21;23.10;99.90
29341;DHT22;16337;59.536;13.468;2023-07-13T14:18:49;23.20;99.90
29341;DHT22;16337;59.536;13.468;2023-07-13T14:21:20;22.90;99.90
29341;DHT22;16337;59.536;13.468;2023-07-13T14:23:47;22.60;99.90
29341;DHT22;16337;59.536;13.468;2023-07-13T14:26:19;22.50;99.90
29341;DHT22;16337;59.536;13.468;2023-07-13T14:28:47;22.40;99.90
29341;DHT22;16337;59.536;13.468;2023-07-13T14:31:15;22.60;99.90
29341;DHT22;16337;59.536;13.468;2023-07-13T14:33:42;23.20;99.90
29341;DHT22;16337;59.536;13.468;2023-07-13T14:39:15;23.40;99.90
29341;DHT22;16337;59.536;13.468;2023-07-13T14:41:42;24.00;99.90
29341;DHT22;16337;59.536;13.468;2023-07-13T14:44:20;23.90;99.90
29341;DHT22;16337;59.536;13.468;2023-07-13T14:46:46;23.40;99.90
29341;DHT22;16337;59.536;13.468;2023-07-13T14:49:42;23.00;99.90
29341;DHT22;16337;59.536;13.468;2023-07-13T14:52:16;23.10;99.90
29341;DHT22;16337;59.536;13.468;2023-07-13T14:54:42;23.20;99.90
29341;DHT22;16337;59.536;13.468;2023-07-13T14:57:12;23.20;99.90
29341;DHT22;16337;59.536;13.468;2023-07-13T14:59:39;23.40;99.90
29341;DHT22;16337;59.536;13.468;2023-07-13T15:02:31;23.90;99.90
29341;DHT22;16337;59.536;13.468;2023-07-13T15:04:58;23.60;99.90
29341;DHT22;16337;59.536;13.468;2023-07-13T15:07:24;23.30;99.90
29341;DHT22;16337;59.536;13.468;2023-07-13T15:09:50;23.30;99.90
29341;DHT22;16337;59.536;13.468;2023-07-13T15:12:17;23.70;99.90
29341;DHT22;16337;59.536;13.468;2023-07-13T15:14:43;24.10;99.90
29341;DHT22;16337;59.536;13.468;2023-07-13T15:17:26;24.30;99.90
29341;DHT22;16337;59.536;13.468;2023-07-13T15:19:53;24.60;99.90
29341;DHT22;16337;59.536;13.468;2023-07-13T15:22:19;24.10;99.90
29341;DHT22;16337;59.536;13.468;2023-07-13T15:24:45;23.70;99.90
29341;DHT22;16337;59.536;13.468;2023-07-13T15:27:13;23.50;99.90
29341;DHT22;16337;59.536;13.468;2023-07-13T15:29:39;23.30;99.90
29341;DHT22;16337;59.536;13.468;2023-07-13T15:32:15;22.90;99.90
29341;DHT22;16337;59.536;13.468;2023-07-13T15:34:41;22.70;99.90
29341;DHT22;16337;59.536;13.468;2023-07-13T15:37:15;22.90;99.90
29341;DHT22;16337;59.536;13.468;2023-07-13T15:39:41;23.10;99.90
29341;DHT22;16337;59.536;13.468;2023-07-13T15:42:15;23.20;99.90
29341;DHT22;16337;59.536;13.468;2023-07-13T15:44:41;23.30;99.90
29341;DHT22;16337;59.536;13.468;2023-07-13T15:47:11;23.50;99.90
29341;DHT22;16337;59.536;13.468;2023-07-13T15:49:38;23.60;99.90
29341;DHT22;16337;59.536;13.468;2023-07-13T15:52:05;23.50;99.90
29341;DHT22;16337;59.536;13.468;2023-07-13T15:54:31;23.40;99.90
29341;DHT22;16337;59.536;13.468;2023-07-13T15:57:01;23.20;99.90
29341;DHT22;16337;59.536;13.468;2023-07-13T15:59:27;23.10;99.90
29341;DHT22;16337;59.536;13.468;2023-07-13T16:01:56;23.00;99.90
29341;DHT22;16337;59.536;13.468;2023-07-13T16:04:22;22.80;99.90
29341;DHT22;16337;59.536;13.468;2023-07-13T16:06:47;22.90;99.90
29341;DHT22;16337;59.536;13.468;2023-07-13T16:09:20;23.20;99.90
29341;DHT22;16337;59.536;13.468;2023-07-13T16:11:47;23.00;99.90
29341;DHT22;16337;59.536;13.468;2023-07-13T16:14:14;23.20;99.90
29341;DHT22;16337;59.536;13.468;2023-07-13T16:16:41;23.00;99.90
29341;DHT22;16337;59.536;13.468;2023-07-13T16:19:10;22.70;99.90
29341;DHT22;16337;59.536;13.468;2023-07-13T16:21:42;22.50;99.90
29341;DHT22;16337;59.536;13.468;2023-07-13T16:24:16;22.00;99.90